sensor_id;sensor_type;location;lat;lon;timestamp;temperature;humidity
5689;DHT22;2869;50.432;8.680;2024-03-08T00:00:55;2.40;99.90
5689;DHT22;2869;50.432;8.680;2024-03-08T00:03:24;2.30;99.90
5689;DHT22;2869;50.432;8.680;2024-03-08T00:05:50;2.30;99.90
5689;DHT22;2869;50.432;8.680;2024-03-08T00:08:17;2.30;99.90
5689;DHT22;2869;50.432;8.680;2024-03-08T00:10:43;2.30;99.90
5689;DHT22;2869;50.432;8.680;2024-03-08T00:13:10;2.20;99.90
5689;DHT22;2869;50.432;8.680;2024-03-08T00:15:36;2.20;99.90
5689;DHT22;2869;50.432;8.680;2024-03-08T00:18:03;2.10;99.90
5689;DHT22;2869;50.432;8.680;2024-03-08T00:20:31;2.10;99.90
5689;DHT22;2869;50.432;8.680;2024-03-08T00:22:58;2.00;99.90
5689;DHT22;2869;50.432;8.680;2024-03-08T00:25:25;2.00;99.90
5689;DHT22;2869;50.432;8.680;2024-03-08T00:27:51;1.90;99.90
5689;DHT22;2869;50.432;8.680;2024-03-08T00:30:21;1.90;99.90
5689;DHT22;2869;50.432;8.680;2024-03-08T00:32:48;1.80;99.90
5689;DHT22;2869;50.432;8.680;2024-03-08T00:35:14;1.80;99.90
5689;DHT22;2869;50.432;8.680;2024-03-08T00:37:42;1.70;99.90
5689;DHT22;2869;50.432;8.680;2024-03-08T00:40:12;1.70;99.90
5689;DHT22;2869;50.432;8.680;2024-03-08T00:42:38;1.70;99.90
5689;DHT22;2869;50.432;8.680;2024-03-08T00:45:06;1.70;99.90
5689;DHT22;2869;50.432;8.680;2024-03-08T00:47:33;1.60;99.90
5689;DHT22;2869;50.432;8.680;2024-03-08T00:49:59;1.60;99.90
5689;DHT22;2869;50.432;8.680;2024-03-08T00:52:29;1.60;99.90
5689;DHT22;2869;50.432;8.680;2024-03-08T00:54:57;1.60;99.90
5689;DHT22;2869;50.432;8.680;2024-03-08T00:57:23;1.60;99.90
5689;DHT22;2869;50.432;8.680;2024-03-08T00:59:49;1.50;99.90
5689;DHT22;2869;50.432;8.680;2024-03-08T01:02:16;1.50;99.90
5689;DHT22;2869;50.432;8.680;2024-03-08T01:04:44;1.40;99.90
5689;DHT22;2869;50.432;8.680;2024-03-08T01:07:12;1.50;99.90
5689;DHT22;2869;50.432;8.680;2024-03-08T01:09:38;1.40;99.90
5689;DHT22;2869;50.432;8.680;2024-03-08T01:12:07;1.30;99.90
5689;DHT22;2869;50.432;8.680;2024-03-08T01:14:33;1.30;99.90
5689;DHT22;2869;50.432;8.680;2024-03-08T01:17:00;1.30;99.90
5689;DHT22;2869;50.432;8.680;2024-03-08T01:19:26;1.30;99.90
5689;DHT22;2869;50.432;8.680;2024-03-08T01:21:53;1.30;99.90
5689;DHT22;2869;50.432;8.680;2024-03-08T01:24:20;1.40;99.90
5689;DHT22;2869;50.432;8.680;2024-03-08T01:26:47;1.30;99.90
5689;DHT22;2869;50.432;8.680;2024-03-08T01:29:15;1.30;99.90
5689;DHT22;2869;50.432;8.680;2024-03-08T01:31:41;1.30;99.90
5689;DHT22;2869;50.432;8.680;2024-03-08T01:34:08;1.20;99.90
5689;DHT22;2869;50.432;8.680;2024-03-08T01:36:35;1.20;99.90
5689;DHT22;2869;50.432;8.680;2024-03-08T01:39:02;1.20;99.90
5689;DHT22;2869;50.432;8.680;2024-03-08T01:41:33;1.10;99.90
5689;DHT22;2869;50.432;8.680;2024-03-08T01:44:00;1.10;99.90
5689;DHT22;2869;50.432;8.680;2024-03-08T01:46:28;1.10;99.90
5689;DHT22;2869;50.432;8.680;2024-03-08T01:48:54;1.10;99.90
5689;DHT22;2869;50.432;8.680;2024-03-08T01:51:20;1.00;99.90
5689;DHT22;2869;50.432;8.680;2024-03-08T01:53:47;1.10;99.90
5689;DHT22;2869;50.432;8.680;2024-03-08T01:56:14;0.90;99.90
5689;DHT22;2869;50.432;8.680;2024-03-08T01:58:40;0.90;99.90
5689;DHT22;2869;50.432;8.680;2024-03-08T02:01:08;0.90;99.90
5689;DHT22;2869;50.432;8.680;2024-03-08T02:03:37;0.90;99.90
5689;DHT22;2869;50.432;8.680;2024-03-08T02:06:04;0.90;99.90
5689;DHT22;2869;50.432;8.680;2024-03-08T02:08:33;0.90;99.90
5689;DHT22;2869;50.432;8.680;2024-03-08T02:11:00;0.90;99.90
5689;DHT22;2869;50.432;8.680;2024-03-08T02:13:27;0.90;99.90
5689;DHT22;2869;50.432;8.680;2024-03-08T02:15:55;0.90;99.90
5689;DHT22;2869;50.432;8.680;2024-03-08T02:18:22;0.90;99.90
5689;DHT22;2869;50.432;8.680;2024-03-08T02:20:50;0.90;99.90
5689;DHT22;2869;50.432;8.680;2024-03-08T02:23:17;0.80;99.90
5689;DHT22;2869;50.432;8.680;2024-03-08T02:25:44;0.80;99.90
5689;DHT22;2869;50.432;8.680;2024-03-08T02:28:11;0.80;99.90
5689;DHT22;2869;50.432;8.680;2024-03-08T02:30:38;0.80;99.90
5689;DHT22;2869;50.432;8.680;2024-03-08T02:33:04;0.80;99.90
5689;DHT22;2869;50.432;8.680;2024-03-08T02:35:31;0.80;99.90
5689;DHT22;2869;50.432;8.680;2024-03-08T02:37:59;0.70;99.90
5689;DHT22;2869;50.432;8.680;2024-03-08T02:40:26;0.70;99.90
5689;DHT22;2869;50.432;8.680;2024-03-08T02:42:52;0.70;99.90
5689;DHT22;2869;50.432;8.680;2024-03-08T02:45:18;0.70;99.90
5689;DHT22;2869;50.432;8.680;2024-03-08T02:47:45;0.70;99.90
5689;DHT22;2869;50.432;8.680;2024-03-08T02:50:14;0.80;99.90
5689;DHT22;2869;50.432;8.680;2024-03-08T02:52:41;0.60;99.90
5689;DHT22;2869;50.432;8.680;2024-03-08T02:55:09;0.60;99.90
5689;DHT22;2869;50.432;8.680;2024-03-08T02:57:36;0.60;99.90
5689;DHT22;2869;50.432;8.680;2024-03-08T03:00:03;0.60;99.90
5689;DHT22;2869;50.432;8.680;2024-03-08T03:02:30;0.60;99.90
5689;DHT22;2869;50.432;8.680;2024-03-08T03:04:56;0.50;99.90
5689;DHT22;2869;50.432;8.680;2024-03-08T03:07:23;0.50;99.90
5689;DHT22;2869;50.432;8.680;2024-03-08T03:09:52;0.60;99.90
5689;DHT22;2869;50.432;8.680;2024-03-08T03:12:20;0.40;99.90
5689;DHT22;2869;50.432;8.680;2024-03-08T03:14:48;0.50;99.90
5689;DHT22;2869;50.432;8.680;2024-03-08T03:17:14;0.40;99.90
5689;DHT22;2869;50.432;8.680;2024-03-08T03:19:41;0.40;99.90
5689;DHT22;2869;50.432;8.680;2024-03-08T03:22:09;0.40;99.90
5689;DHT22;2869;50.432;8.680;2024-03-08T03:24:36;0.50;99.90
5689;DHT22;2869;50.432;8.680;2024-03-08T03:27:03;0.40;99.90
5689;DHT22;2869;50.432;8.680;2024-03-08T03:29:37;0.30;99.90
5689;DHT22;2869;50.432;8.680;2024-03-08T03:32:03;0.30;99.90
5689;DHT22;2869;50.432;8.680;2024-03-08T03:34:30;0.20;99.90
5689;DHT22;2869;50.432;8.680;2024-03-08T03:36:57;0.20;99.90
5689;DHT22;2869;50.432;8.680;2024-03-08T03:39:24;0.20;99.90
5689;DHT22;2869;50.432;8.680;2024-03-08T03:41:50;0.20;99.90
5689;DHT22;2869;50.432;8.680;2024-03-08T03:44:17;0.30;99.90
5689;DHT22;2869;50.432;8.680;2024-03-08T03:46:45;0.10;99.90
5689;DHT22;2869;50.432;8.680;2024-03-08T03:49:11;0.10;99.90
5689;DHT22;2869;50.432;8.680;2024-03-08T03:51:38;0.10;99.90
5689;DHT22;2869;50.432;8.680;2024-03-08T03:54:04;0.00;99.90
5689;DHT22;2869;50.432;8.680;2024-03-08T03:56:31;0.10;99.90
5689;DHT22;2869;50.432;8.680;2024-03-08T03:58:57;0.00;99.90
5689;DHT22;2869;50.432;8.680;2024-03-08T04:01:24;-0.10;99.90
5689;DHT22;2869;50.432;8.680;2024-03-08T04:03:52;-0.10;99.90
5689;DHT22;2869;50.432;8.680;2024-03-08T04:06:18;0.00;99.90
5689;DHT22;2869;50.432;8.680;2024-03-08T04:08:45;-0.10;99.90
5689;DHT22;2869;50.432;8.680;2024-03-08T04:11:11;-0.10;99.90
5689;DHT22;2869;50.432;8.680;2024-03-08T04:13:38;0.00;99.90
5689;DHT22;2869;50.432;8.680;2024-03-08T04:16:05;-0.10;99.90
5689;DHT22;2869;50.432;8.680;2024-03-08T04:18:33;0.00;99.90
5689;DHT22;2869;50.432;8.680;2024-03-08T04:21:02;-0.10;99.90
5689;DHT22;2869;50.432;8.680;2024-03-08T04:23:32;-0.10;99.90
5689;DHT22;2869;50.432;8.680;2024-03-08T04:26:00;-0.10;99.90
5689;DHT22;2869;50.432;8.680;2024-03-08T04:28:27;0.00;99.90
5689;DHT22;2869;50.432;8.680;2024-03-08T04:30:53;-0.10;99.90
5689;DHT22;2869;50.432;8.680;2024-03-08T04:33:20;0.00;99.90
5689;DHT22;2869;50.432;8.680;2024-03-08T04:35:48;-0.10;99.90
5689;DHT22;2869;50.432;8.680;2024-03-08T04:38:16;-0.10;99.90
5689;DHT22;2869;50.432;8.680;2024-03-08T04:40:43;0.00;99.90
5689;DHT22;2869;50.432;8.680;2024-03-08T04:43:09;-0.10;99.90
5689;DHT22;2869;50.432;8.680;2024-03-08T04:45:36;-0.10;99.90
5689;DHT22;2869;50.432;8.680;2024-03-08T04:48:02;-0.10;99.90
5689;DHT22;2869;50.432;8.680;2024-03-08T04:50:29;-0.10;99.90
5689;DHT22;2869;50.432;8.680;2024-03-08T04:52:55;-0.20;99.90
5689;DHT22;2869;50.432;8.680;2024-03-08T04:55:23;-0.10;99.90
5689;DHT22;2869;50.432;8.680;2024-03-08T04:57:50;-0.10;99.90
5689;DHT22;2869;50.432;8.680;2024-03-08T05:00:16;-0.10;99.90
5689;DHT22;2869;50.432;8.680;2024-03-08T05:02:43;-0.10;99.90
5689;DHT22;2869;50.432;8.680;2024-03-08T05:05:09;-0.10;99.90
5689;DHT22;2869;50.432;8.680;2024-03-08T05:07:37;-0.10;99.90
5689;DHT22;2869;50.432;8.680;2024-03-08T05:10:05;-0.10;99.90
5689;DHT22;2869;50.432;8.680;2024-03-08T05:12:33;-0.10;99.90
5689;DHT22;2869;50.432;8.680;2024-03-08T05:14:59;0.00;99.90
5689;DHT22;2869;50.432;8.680;2024-03-08T05:17:26;-0.10;99.90
5689;DHT22;2869;50.432;8.680;2024-03-08T05:19:53;-0.10;99.90
5689;DHT22;2869;50.432;8.680;2024-03-08T05:22:19;-0.20;99.90
5689;DHT22;2869;50.432;8.680;2024-03-08T05:24:46;-0.20;99.90
5689;DHT22;2869;50.432;8.680;2024-03-08T05:27:12;-0.30;99.90
5689;DHT22;2869;50.432;8.680;2024-03-08T05:29:40;-0.20;99.90
5689;DHT22;2869;50.432;8.680;2024-03-08T05:32:07;-0.30;99.90
5689;DHT22;2869;50.432;8.680;2024-03-08T05:34:35;-0.30;99.90
5689;DHT22;2869;50.432;8.680;2024-03-08T05:37:01;-0.30;99.90
5689;DHT22;2869;50.432;8.680;2024-03-08T05:39:28;-0.30;99.90
5689;DHT22;2869;50.432;8.680;2024-03-08T05:41:54;-0.30;99.90
5689;DHT22;2869;50.432;8.680;2024-03-08T05:44:21;-0.30;99.90
5689;DHT22;2869;50.432;8.680;2024-03-08T05:46:49;-0.30;99.90
5689;DHT22;2869;50.432;8.680;2024-03-08T05:49:15;-0.40;99.90
5689;DHT22;2869;50.432;8.680;2024-03-08T05:51:42;-0.40;99.90
5689;DHT22;2869;50.432;8.680;2024-03-08T05:54:09;-0.40;99.90
5689;DHT22;2869;50.432;8.680;2024-03-08T05:56:36;-0.40;99.90
5689;DHT22;2869;50.432;8.680;2024-03-08T05:59:03;-0.30;99.90
5689;DHT22;2869;50.432;8.680;2024-03-08T06:01:29;-0.40;99.90
5689;DHT22;2869;50.432;8.680;2024-03-08T06:03:58;-0.30;99.90
5689;DHT22;2869;50.432;8.680;2024-03-08T06:06:24;-0.20;99.90
5689;DHT22;2869;50.432;8.680;2024-03-08T06:08:51;-0.20;99.90
5689;DHT22;2869;50.432;8.680;2024-03-08T06:11:18;-0.10;99.90
5689;DHT22;2869;50.432;8.680;2024-03-08T06:13:45;-0.10;99.90
5689;DHT22;2869;50.432;8.680;2024-03-08T06:16:12;-0.10;99.90
5689;DHT22;2869;50.432;8.680;2024-03-08T06:18:38;0.00;99.90
5689;DHT22;2869;50.432;8.680;2024-03-08T06:21:06;0.00;99.90
5689;DHT22;2869;50.432;8.680;2024-03-08T06:23:32;0.00;99.90
5689;DHT22;2869;50.432;8.680;2024-03-08T06:25:59;0.10;99.90
5689;DHT22;2869;50.432;8.680;2024-03-08T06:28:26;0.20;99.90
5689;DHT22;2869;50.432;8.680;2024-03-08T06:30:52;0.30;99.90
5689;DHT22;2869;50.432;8.680;2024-03-08T06:33:19;0.40;99.90
5689;DHT22;2869;50.432;8.680;2024-03-08T06:35:45;0.80;99.90
5689;DHT22;2869;50.432;8.680;2024-03-08T06:38:13;1.10;99.90
5689;DHT22;2869;50.432;8.680;2024-03-08T06:40:42;1.60;99.90
5689;DHT22;2869;50.432;8.680;2024-03-08T06:43:08;2.10;99.90
5689;DHT22;2869;50.432;8.680;2024-03-08T06:45:39;2.60;99.90
5689;DHT22;2869;50.432;8.680;2024-03-08T06:48:06;2.90;99.90
5689;DHT22;2869;50.432;8.680;2024-03-08T06:50:34;3.40;99.90
5689;DHT22;2869;50.432;8.680;2024-03-08T06:53:01;3.80;99.90
5689;DHT22;2869;50.432;8.680;2024-03-08T06:55:29;4.10;99.90
5689;DHT22;2869;50.432;8.680;2024-03-08T06:57:56;4.50;99.90
5689;DHT22;2869;50.432;8.680;2024-03-08T07:00:23;4.80;99.90
5689;DHT22;2869;50.432;8.680;2024-03-08T07:02:52;5.10;99.90
5689;DHT22;2869;50.432;8.680;2024-03-08T07:05:19;5.50;99.90
5689;DHT22;2869;50.432;8.680;2024-03-08T07:07:46;6.00;99.90
5689;DHT22;2869;50.432;8.680;2024-03-08T07:10:13;6.20;99.90
5689;DHT22;2869;50.432;8.680;2024-03-08T07:12:42;6.60;99.90
5689;DHT22;2869;50.432;8.680;2024-03-08T07:15:08;6.90;99.90
5689;DHT22;2869;50.432;8.680;2024-03-08T07:17:38;7.30;99.90
5689;DHT22;2869;50.432;8.680;2024-03-08T07:20:05;7.60;99.90
5689;DHT22;2869;50.432;8.680;2024-03-08T07:22:33;7.90;99.90
5689;DHT22;2869;50.432;8.680;2024-03-08T07:24:59;8.30;99.90
5689;DHT22;2869;50.432;8.680;2024-03-08T07:27:46;8.60;99.90
5689;DHT22;2869;50.432;8.680;2024-03-08T07:30:13;9.00;99.90
5689;DHT22;2869;50.432;8.680;2024-03-08T07:32:59;9.30;99.90
5689;DHT22;2869;50.432;8.680;2024-03-08T07:35:27;9.60;99.90
5689;DHT22;2869;50.432;8.680;2024-03-08T07:37:54;9.80;99.90
5689;DHT22;2869;50.432;8.680;2024-03-08T07:40:20;10.00;99.90
5689;DHT22;2869;50.432;8.680;2024-03-08T07:42:49;10.30;99.90
5689;DHT22;2869;50.432;8.680;2024-03-08T07:45:16;10.60;99.90
5689;DHT22;2869;50.432;8.680;2024-03-08T07:47:42;10.60;99.90
5689;DHT22;2869;50.432;8.680;2024-03-08T07:50:09;10.40;99.90
5689;DHT22;2869;50.432;8.680;2024-03-08T07:52:36;10.00;99.90
5689;DHT22;2869;50.432;8.680;2024-03-08T07:55:03;9.50;99.90
5689;DHT22;2869;50.432;8.680;2024-03-08T07:57:30;9.40;99.90
5689;DHT22;2869;50.432;8.680;2024-03-08T07:59:58;9.30;99.90
5689;DHT22;2869;50.432;8.680;2024-03-08T08:02:25;9.00;99.90
5689;DHT22;2869;50.432;8.680;2024-03-08T08:04:51;9.00;99.90
5689;DHT22;2869;50.432;8.680;2024-03-08T08:07:18;8.40;99.90
5689;DHT22;2869;50.432;8.680;2024-03-08T08:09:44;8.20;99.90
5689;DHT22;2869;50.432;8.680;2024-03-08T08:12:11;8.00;99.90
5689;DHT22;2869;50.432;8.680;2024-03-08T08:14:38;7.60;99.90
5689;DHT22;2869;50.432;8.680;2024-03-08T08:17:06;7.30;99.90
5689;DHT22;2869;50.432;8.680;2024-03-08T08:19:33;7.40;99.90
5689;DHT22;2869;50.432;8.680;2024-03-08T08:22:00;7.70;99.90
5689;DHT22;2869;50.432;8.680;2024-03-08T08:24:27;7.90;99.90
5689;DHT22;2869;50.432;8.680;2024-03-08T08:26:54;8.10;99.90
5689;DHT22;2869;50.432;8.680;2024-03-08T08:29:21;7.90;99.90
5689;DHT22;2869;50.432;8.680;2024-03-08T08:31:48;8.10;99.90
5689;DHT22;2869;50.432;8.680;2024-03-08T08:34:16;8.20;99.90
5689;DHT22;2869;50.432;8.680;2024-03-08T08:36:44;8.20;99.90
5689;DHT22;2869;50.432;8.680;2024-03-08T08:39:11;8.10;99.90
5689;DHT22;2869;50.432;8.680;2024-03-08T08:41:38;7.90;99.90
5689;DHT22;2869;50.432;8.680;2024-03-08T08:44:06;7.80;99.90
5689;DHT22;2869;50.432;8.680;2024-03-08T08:46:35;7.80;99.90
5689;DHT22;2869;50.432;8.680;2024-03-08T08:49:03;7.70;99.90
5689;DHT22;2869;50.432;8.680;2024-03-08T08:51:30;7.60;99.90
5689;DHT22;2869;50.432;8.680;2024-03-08T08:53:59;7.90;99.90
5689;DHT22;2869;50.432;8.680;2024-03-08T08:56:25;8.30;99.90
5689;DHT22;2869;50.432;8.680;2024-03-08T08:58:54;8.20;99.90
5689;DHT22;2869;50.432;8.680;2024-03-08T09:01:22;8.10;99.90
5689;DHT22;2869;50.432;8.680;2024-03-08T09:03:48;8.00;99.90
5689;DHT22;2869;50.432;8.680;2024-03-08T09:06:15;7.90;99.90
5689;DHT22;2869;50.432;8.680;2024-03-08T09:08:43;8.00;99.90
5689;DHT22;2869;50.432;8.680;2024-03-08T09:11:11;8.00;99.90
5689;DHT22;2869;50.432;8.680;2024-03-08T09:13:37;7.90;99.90
5689;DHT22;2869;50.432;8.680;2024-03-08T09:16:04;8.00;99.90
5689;DHT22;2869;50.432;8.680;2024-03-08T09:18:31;8.10;99.90
5689;DHT22;2869;50.432;8.680;2024-03-08T09:20:58;7.90;99.90
5689;DHT22;2869;50.432;8.680;2024-03-08T09:23:26;8.00;99.90
5689;DHT22;2869;50.432;8.680;2024-03-08T09:25:56;8.20;99.90
5689;DHT22;2869;50.432;8.680;2024-03-08T09:28:23;8.00;99.90
5689;DHT22;2869;50.432;8.680;2024-03-08T09:30:49;7.80;99.90
5689;DHT22;2869;50.432;8.680;2024-03-08T09:33:16;8.10;99.90
5689;DHT22;2869;50.432;8.680;2024-03-08T09:35:44;8.30;99.90
5689;DHT22;2869;50.432;8.680;2024-03-08T09:38:12;8.20;99.90
5689;DHT22;2869;50.432;8.680;2024-03-08T09:40:38;8.20;99.90
5689;DHT22;2869;50.432;8.680;2024-03-08T09:43:06;8.50;99.90
5689;DHT22;2869;50.432;8.680;2024-03-08T09:45:35;8.60;99.90
5689;DHT22;2869;50.432;8.680;2024-03-08T09:48:05;8.80;99.90
5689;DHT22;2869;50.432;8.680;2024-03-08T09:50:31;8.90;99.90
5689;DHT22;2869;50.432;8.680;2024-03-08T09:52:58;8.70;99.90
5689;DHT22;2869;50.432;8.680;2024-03-08T09:55:24;8.90;99.90
5689;DHT22;2869;50.432;8.680;2024-03-08T09:57:53;9.00;99.90
5689;DHT22;2869;50.432;8.680;2024-03-08T10:00:36;9.20;99.90
5689;DHT22;2869;50.432;8.680;2024-03-08T10:03:02;9.40;99.90
5689;DHT22;2869;50.432;8.680;2024-03-08T10:05:30;9.20;99.90
5689;DHT22;2869;50.432;8.680;2024-03-08T10:07:58;9.20;99.90
5689;DHT22;2869;50.432;8.680;2024-03-08T10:10:25;9.50;99.90
5689;DHT22;2869;50.432;8.680;2024-03-08T10:12:51;9.70;99.90
5689;DHT22;2869;50.432;8.680;2024-03-08T10:15:18;9.90;99.90
5689;DHT22;2869;50.432;8.680;2024-03-08T10:17:46;9.90;99.90
5689;DHT22;2869;50.432;8.680;2024-03-08T10:20:14;9.80;99.90
5689;DHT22;2869;50.432;8.680;2024-03-08T10:22:41;10.10;99.90
5689;DHT22;2869;50.432;8.680;2024-03-08T10:25:09;10.10;99.90
5689;DHT22;2869;50.432;8.680;2024-03-08T10:27:37;10.00;99.90
5689;DHT22;2869;50.432;8.680;2024-03-08T10:30:04;10.00;99.90
5689;DHT22;2869;50.432;8.680;2024-03-08T10:32:33;10.50;99.90
5689;DHT22;2869;50.432;8.680;2024-03-08T10:35:01;10.60;99.90
5689;DHT22;2869;50.432;8.680;2024-03-08T10:37:28;10.70;99.90
5689;DHT22;2869;50.432;8.680;2024-03-08T10:40:01;10.90;99.90
5689;DHT22;2869;50.432;8.680;2024-03-08T10:42:35;10.90;99.90
5689;DHT22;2869;50.432;8.680;2024-03-08T10:45:09;10.80;99.90
5689;DHT22;2869;50.432;8.680;2024-03-08T10:47:38;10.50;99.90
5689;DHT22;2869;50.432;8.680;2024-03-08T10:50:09;10.10;99.90
5689;DHT22;2869;50.432;8.680;2024-03-08T10:52:38;10.20;99.90
5689;DHT22;2869;50.432;8.680;2024-03-08T10:55:05;10.30;99.90
5689;DHT22;2869;50.432;8.680;2024-03-08T10:57:38;10.50;99.90
5689;DHT22;2869;50.432;8.680;2024-03-08T11:00:05;10.50;99.90
5689;DHT22;2869;50.432;8.680;2024-03-08T11:02:35;10.80;99.90
5689;DHT22;2869;50.432;8.680;2024-03-08T11:05:03;10.60;99.90
5689;DHT22;2869;50.432;8.680;2024-03-08T11:07:34;10.60;99.90
5689;DHT22;2869;50.432;8.680;2024-03-08T11:10:02;10.70;99.90
5689;DHT22;2869;50.432;8.680;2024-03-08T11:12:29;11.00;99.90
5689;DHT22;2869;50.432;8.680;2024-03-08T11:15:02;11.40;99.90
5689;DHT22;2869;50.432;8.680;2024-03-08T11:17:45;11.50;99.90
5689;DHT22;2869;50.432;8.680;2024-03-08T11:20:13;11.50;99.90
5689;DHT22;2869;50.432;8.680;2024-03-08T11:22:47;11.40;99.90
5689;DHT22;2869;50.432;8.680;2024-03-08T11:25:30;11.20;99.90
5689;DHT22;2869;50.432;8.680;2024-03-08T11:28:06;11.30;99.90
5689;DHT22;2869;50.432;8.680;2024-03-08T11:30:32;11.60;99.90
5689;DHT22;2869;50.432;8.680;2024-03-08T11:33:00;11.20;99.90
5689;DHT22;2869;50.432;8.680;2024-03-08T11:35:28;10.30;99.90
5689;DHT22;2869;50.432;8.680;2024-03-08T11:37:56;10.20;99.90
5689;DHT22;2869;50.432;8.680;2024-03-08T11:40:24;10.70;99.90
5689;DHT22;2869;50.432;8.680;2024-03-08T11:42:50;10.90;99.90
5689;DHT22;2869;50.432;8.680;2024-03-08T11:45:17;11.10;99.90
5689;DHT22;2869;50.432;8.680;2024-03-08T11:47:46;11.10;99.90
5689;DHT22;2869;50.432;8.680;2024-03-08T11:50:13;10.80;99.90
5689;DHT22;2869;50.432;8.680;2024-03-08T11:52:39;10.60;99.90
5689;DHT22;2869;50.432;8.680;2024-03-08T11:55:08;10.40;99.90
5689;DHT22;2869;50.432;8.680;2024-03-08T11:57:34;10.30;99.90
5689;DHT22;2869;50.432;8.680;2024-03-08T12:00:01;10.50;99.90
5689;DHT22;2869;50.432;8.680;2024-03-08T12:02:32;10.60;99.90
5689;DHT22;2869;50.432;8.680;2024-03-08T12:05:00;10.80;99.90
5689;DHT22;2869;50.432;8.680;2024-03-08T12:07:28;10.70;99.90
5689;DHT22;2869;50.432;8.680;2024-03-08T12:12:48;11.00;99.90
5689;DHT22;2869;50.432;8.680;2024-03-08T12:15:16;11.10;99.90
5689;DHT22;2869;50.432;8.680;2024-03-08T12:17:44;11.10;99.90
5689;DHT22;2869;50.432;8.680;2024-03-08T12:20:15;11.50;99.90
5689;DHT22;2869;50.432;8.680;2024-03-08T12:22:41;11.90;99.90
5689;DHT22;2869;50.432;8.680;2024-03-08T12:25:09;11.80;99.90
5689;DHT22;2869;50.432;8.680;2024-03-08T12:27:36;11.90;99.90
5689;DHT22;2869;50.432;8.680;2024-03-08T12:30:16;11.90;99.90
5689;DHT22;2869;50.432;8.680;2024-03-08T12:32:46;11.80;99.90
5689;DHT22;2869;50.432;8.680;2024-03-08T12:35:13;11.50;99.90
5689;DHT22;2869;50.432;8.680;2024-03-08T12:37:39;11.70;99.90
5689;DHT22;2869;50.432;8.680;2024-03-08T12:40:07;11.70;99.90
5689;DHT22;2869;50.432;8.680;2024-03-08T12:42:34;11.90;99.90
5689;DHT22;2869;50.432;8.680;2024-03-08T12:45:01;11.80;99.90
5689;DHT22;2869;50.432;8.680;2024-03-08T12:47:29;12.00;99.90
5689;DHT22;2869;50.432;8.680;2024-03-08T12:49:56;12.30;99.90
5689;DHT22;2869;50.432;8.680;2024-03-08T12:52:23;12.50;99.90
5689;DHT22;2869;50.432;8.680;2024-03-08T12:54:49;12.50;99.90
5689;DHT22;2869;50.432;8.680;2024-03-08T12:57:17;12.50;99.90
5689;DHT22;2869;50.432;8.680;2024-03-08T12:59:43;12.40;99.90
5689;DHT22;2869;50.432;8.680;2024-03-08T13:02:10;12.00;99.90
5689;DHT22;2869;50.432;8.680;2024-03-08T13:04:38;12.30;99.90
5689;DHT22;2869;50.432;8.680;2024-03-08T13:07:05;12.30;99.90
5689;DHT22;2869;50.432;8.680;2024-03-08T13:09:32;12.00;99.90
5689;DHT22;2869;50.432;8.680;2024-03-08T13:12:02;12.10;99.90
5689;DHT22;2869;50.432;8.680;2024-03-08T13:14:29;12.30;99.90
5689;DHT22;2869;50.432;8.680;2024-03-08T13:16:57;12.60;99.90
5689;DHT22;2869;50.432;8.680;2024-03-08T13:19:24;12.70;99.90
5689;DHT22;2869;50.432;8.680;2024-03-08T13:21:54;12.60;99.90
5689;DHT22;2869;50.432;8.680;2024-03-08T13:24:21;12.40;99.90
5689;DHT22;2869;50.432;8.680;2024-03-08T13:26:48;12.60;99.90
5689;DHT22;2869;50.432;8.680;2024-03-08T13:29:15;12.70;99.90
5689;DHT22;2869;50.432;8.680;2024-03-08T13:31:43;12.60;99.90
5689;DHT22;2869;50.432;8.680;2024-03-08T13:34:10;12.20;99.90
5689;DHT22;2869;50.432;8.680;2024-03-08T13:36:36;12.00;99.90
5689;DHT22;2869;50.432;8.680;2024-03-08T13:39:10;12.00;99.90
5689;DHT22;2869;50.432;8.680;2024-03-08T13:41:40;11.80;99.90
5689;DHT22;2869;50.432;8.680;2024-03-08T13:44:07;11.70;99.90
5689;DHT22;2869;50.432;8.680;2024-03-08T13:46:33;11.70;99.90
5689;DHT22;2869;50.432;8.680;2024-03-08T13:51:30;11.80;99.90
5689;DHT22;2869;50.432;8.680;2024-03-08T13:53:57;11.70;99.90
5689;DHT22;2869;50.432;8.680;2024-03-08T13:56:27;11.60;99.90
5689;DHT22;2869;50.432;8.680;2024-03-08T13:58:55;11.60;99.90
5689;DHT22;2869;50.432;8.680;2024-03-08T14:01:22;11.60;99.90
5689;DHT22;2869;50.432;8.680;2024-03-08T14:03:49;11.70;99.90
5689;DHT22;2869;50.432;8.680;2024-03-08T14:06:16;11.70;99.90
5689;DHT22;2869;50.432;8.680;2024-03-08T14:08:42;11.70;99.90
5689;DHT22;2869;50.432;8.680;2024-03-08T14:11:09;11.40;99.90
5689;DHT22;2869;50.432;8.680;2024-03-08T14:13:43;11.40;99.90
5689;DHT22;2869;50.432;8.680;2024-03-08T14:16:09;11.30;99.90
5689;DHT22;2869;50.432;8.680;2024-03-08T14:18:36;11.20;99.90
5689;DHT22;2869;50.432;8.680;2024-03-08T14:21:03;11.20;99.90
5689;DHT22;2869;50.432;8.680;2024-03-08T14:23:30;11.40;99.90
5689;DHT22;2869;50.432;8.680;2024-03-08T14:25:58;11.50;99.90
5689;DHT22;2869;50.432;8.680;2024-03-08T14:28:25;11.40;99.90
5689;DHT22;2869;50.432;8.680;2024-03-08T14:30:53;11.50;99.90
5689;DHT22;2869;50.432;8.680;2024-03-08T14:33:20;11.60;99.90
5689;DHT22;2869;50.432;8.680;2024-03-08T14:35:47;11.70;99.90
5689;DHT22;2869;50.432;8.680;2024-03-08T14:38:14;11.60;99.90
5689;DHT22;2869;50.432;8.680;2024-03-08T14:40:42;11.70;99.90
5689;DHT22;2869;50.432;8.680;2024-03-08T14:43:12;11.60;99.90
5689;DHT22;2869;50.432;8.680;2024-03-08T14:45:39;11.60;99.90
5689;DHT22;2869;50.432;8.680;2024-03-08T14:48:08;11.80;99.90
5689;DHT22;2869;50.432;8.680;2024-03-08T14:50:37;11.90;99.90
5689;DHT22;2869;50.432;8.680;2024-03-08T14:53:03;11.80;99.90
5689;DHT22;2869;50.432;8.680;2024-03-08T14:55:31;11.70;99.90
5689;DHT22;2869;50.432;8.680;2024-03-08T14:58:00;11.70;99.90
5689;DHT22;2869;50.432;8.680;2024-03-08T15:00:26;11.80;99.90
5689;DHT22;2869;50.432;8.680;2024-03-08T15:02:59;11.90;99.90
5689;DHT22;2869;50.432;8.680;2024-03-08T15:05:28;11.80;99.90
5689;DHT22;2869;50.432;8.680;2024-03-08T15:07:57;11.80;99.90
5689;DHT22;2869;50.432;8.680;2024-03-08T15:10:24;11.70;99.90
5689;DHT22;2869;50.432;8.680;2024-03-08T15:12:51;11.60;99.90
5689;DHT22;2869;50.432;8.680;2024-03-08T15:15:21;11.40;99.90
5689;DHT22;2869;50.432;8.680;2024-03-08T15:17:49;11.30;99.90
5689;DHT22;2869;50.432;8.680;2024-03-08T15:20:16;11.10;99.90
5689;DHT22;2869;50.432;8.680;2024-03-08T15:22:51;11.10;99.90
5689;DHT22;2869;50.432;8.680;2024-03-08T15:25:20;11.30;99.90
5689;DHT22;2869;50.432;8.680;2024-03-08T15:27:51;11.50;99.90
5689;DHT22;2869;50.432;8.680;2024-03-08T15:30:17;11.50;99.90
5689;DHT22;2869;50.432;8.680;2024-03-08T15:32:48;11.40;99.90
5689;DHT22;2869;50.432;8.680;2024-03-08T15:35:15;11.30;99.90
5689;DHT22;2869;50.432;8.680;2024-03-08T15:37:42;11.20;99.90
5689;DHT22;2869;50.432;8.680;2024-03-08T15:40:11;11.20;99.90
5689;DHT22;2869;50.432;8.680;2024-03-08T15:42:47;11.10;99.90
5689;DHT22;2869;50.432;8.680;2024-03-08T15:45:15;11.20;99.90
5689;DHT22;2869;50.432;8.680;2024-03-08T15:47:42;11.20;99.90
5689;DHT22;2869;50.432;8.680;2024-03-08T15:50:09;11.20;99.90
5689;DHT22;2869;50.432;8.680;2024-03-08T15:52:37;11.10;99.90
5689;DHT22;2869;50.432;8.680;2024-03-08T15:55:05;11.10;99.90
5689;DHT22;2869;50.432;8.680;2024-03-08T15:57:33;11.00;99.90
5689;DHT22;2869;50.432;8.680;2024-03-08T16:00:00;10.90;99.90
5689;DHT22;2869;50.432;8.680;2024-03-08T16:02:38;10.90;99.90
5689;DHT22;2869;50.432;8.680;2024-03-08T16:05:05;10.90;99.90
5689;DHT22;2869;50.432;8.680;2024-03-08T16:07:32;10.80;99.90
5689;DHT22;2869;50.432;8.680;2024-03-08T16:09:58;10.80;99.90
5689;DHT22;2869;50.432;8.680;2024-03-08T16:12:25;10.80;99.90
5689;DHT22;2869;50.432;8.680;2024-03-08T16:14:55;10.70;99.90
5689;DHT22;2869;50.432;8.680;2024-03-08T16:17:22;10.70;99.90